sensor_id;sensor_type;location;lat;lon;timestamp;P1;durP1;ratioP1;P2;durP2;ratioP2
53287;SDS011;39172;45.550;12.072;2023-05-29T00:04:52;5.10;;;3.78;;
53287;SDS011;39172;45.550;12.072;2023-05-29T00:10:54;5.57;;;4.28;;
53287;SDS011;39172;45.550;12.072;2023-05-29T00:16:55;5.90;;;4.82;;
53287;SDS011;39172;45.550;12.072;2023-05-29T00:22:57;4.55;;;3.92;;
53287;SDS011;39172;45.550;12.072;2023-05-29T00:28:58;4.50;;;4.00;;
53287;SDS011;39172;45.550;12.072;2023-05-29T00:34:58;5.50;;;4.70;;
53287;SDS011;39172;45.550;12.072;2023-05-29T00:40:59;5.30;;;4.32;;
53287;SDS011;39172;45.550;12.072;2023-05-29T00:47:00;4.80;;;4.30;;
53287;SDS011;39172;45.550;12.072;2023-05-29T00:53:01;5.88;;;5.00;;
53287;SDS011;39172;45.550;12.072;2023-05-29T00:59:02;6.93;;;5.22;;
53287;SDS011;39172;45.550;12.072;2023-05-29T01:05:04;5.28;;;4.28;;
53287;SDS011;39172;45.550;12.072;2023-05-29T01:11:31;4.55;;;4.00;;
53287;SDS011;39172;45.550;12.072;2023-05-29T01:17:32;4.50;;;3.92;;
53287;SDS011;39172;45.550;12.072;2023-05-29T01:29:37;5.35;;;4.28;;
53287;SDS011;39172;45.550;12.072;2023-05-29T01:35:39;5.90;;;4.60;;
53287;SDS011;39172;45.550;12.072;2023-05-29T01:41:40;5.82;;;4.70;;
53287;SDS011;39172;45.550;12.072;2023-05-29T01:47:42;5.93;;;4.30;;
53287;SDS011;39172;45.550;12.072;2023-05-29T01:53:43;5.25;;;4.47;;
53287;SDS011;39172;45.550;12.072;2023-05-29T01:59:44;5.55;;;4.80;;
53287;SDS011;39172;45.550;12.072;2023-05-29T02:05:45;6.63;;;4.75;;
53287;SDS011;39172;45.550;12.072;2023-05-29T02:11:46;5.10;;;4.53;;
53287;SDS011;39172;45.550;12.072;2023-05-29T02:17:47;5.20;;;4.43;;
53287;SDS011;39172;45.550;12.072;2023-05-29T02:23:50;4.90;;;4.13;;
53287;SDS011;39172;45.550;12.072;2023-05-29T02:29:51;4.80;;;4.30;;
53287;SDS011;39172;45.550;12.072;2023-05-29T02:35:52;4.38;;;3.67;;
53287;SDS011;39172;45.550;12.072;2023-05-29T02:41:53;3.75;;;3.28;;
53287;SDS011;39172;45.550;12.072;2023-05-29T02:47:54;3.63;;;3.03;;
53287;SDS011;39172;45.550;12.072;2023-05-29T02:53:55;3.42;;;3.03;;
53287;SDS011;39172;45.550;12.072;2023-05-29T02:59:56;3.78;;;3.30;;
53287;SDS011;39172;45.550;12.072;2023-05-29T03:05:57;4.10;;;3.60;;
53287;SDS011;39172;45.550;12.072;2023-05-29T03:11:58;4.38;;;3.85;;
53287;SDS011;39172;45.550;12.072;2023-05-29T03:18:02;4.43;;;3.97;;
53287;SDS011;39172;45.550;12.072;2023-05-29T03:24:05;4.38;;;3.97;;
53287;SDS011;39172;45.550;12.072;2023-05-29T03:30:08;5.65;;;3.92;;
53287;SDS011;39172;45.550;12.072;2023-05-29T03:36:10;5.50;;;4.22;;
53287;SDS011;39172;45.550;12.072;2023-05-29T03:42:12;4.60;;;3.97;;
53287;SDS011;39172;45.550;12.072;2023-05-29T03:48:13;4.65;;;3.95;;
53287;SDS011;39172;45.550;12.072;2023-05-29T03:54:16;3.42;;;3.05;;
53287;SDS011;39172;45.550;12.072;2023-05-29T04:00:19;4.50;;;3.30;;
53287;SDS011;39172;45.550;12.072;2023-05-29T04:06:22;3.63;;;3.20;;
53287;SDS011;39172;45.550;12.072;2023-05-29T04:12:24;3.40;;;3.10;;
53287;SDS011;39172;45.550;12.072;2023-05-29T04:18:25;3.88;;;3.40;;
53287;SDS011;39172;45.550;12.072;2023-05-29T04:24:27;3.65;;;3.08;;
53287;SDS011;39172;45.550;12.072;2023-05-29T04:30:27;5.60;;;4.38;;
53287;SDS011;39172;45.550;12.072;2023-05-29T04:36:29;5.00;;;4.20;;
53287;SDS011;39172;45.550;12.072;2023-05-29T04:42:42;5.78;;;4.57;;
53287;SDS011;39172;45.550;12.072;2023-05-29T04:48:45;5.07;;;4.57;;
53287;SDS011;39172;45.550;12.072;2023-05-29T04:54:48;5.28;;;4.25;;
53287;SDS011;39172;45.550;12.072;2023-05-29T05:00:50;4.30;;;3.40;;
53287;SDS011;39172;45.550;12.072;2023-05-29T05:06:51;4.45;;;3.67;;
53287;SDS011;39172;45.550;12.072;2023-05-29T05:12:52;4.55;;;3.55;;
53287;SDS011;39172;45.550;12.072;2023-05-29T05:18:55;4.90;;;3.90;;
53287;SDS011;39172;45.550;12.072;2023-05-29T05:24:56;4.13;;;3.72;;
53287;SDS011;39172;45.550;12.072;2023-05-29T05:30:59;5.03;;;3.92;;
53287;SDS011;39172;45.550;12.072;2023-05-29T05:37:00;4.68;;;3.80;;
53287;SDS011;39172;45.550;12.072;2023-05-29T05:43:01;5.35;;;4.20;;
53287;SDS011;39172;45.550;12.072;2023-05-29T05:49:22;4.97;;;4.30;;
53287;SDS011;39172;45.550;12.072;2023-05-29T05:55:23;5.45;;;4.35;;
53287;SDS011;39172;45.550;12.072;2023-05-29T06:01:24;5.28;;;4.10;;
53287;SDS011;39172;45.550;12.072;2023-05-29T06:07:25;4.75;;;3.97;;
53287;SDS011;39172;45.550;12.072;2023-05-29T06:13:26;5.55;;;4.10;;
53287;SDS011;39172;45.550;12.072;2023-05-29T06:19:32;5.32;;;4.07;;
53287;SDS011;39172;45.550;12.072;2023-05-29T06:25:35;4.75;;;4.25;;
53287;SDS011;39172;45.550;12.072;2023-05-29T06:31:36;5.38;;;4.50;;
53287;SDS011;39172;45.550;12.072;2023-05-29T06:37:37;5.00;;;4.47;;
53287;SDS011;39172;45.550;12.072;2023-05-29T06:43:38;5.45;;;4.00;;
53287;SDS011;39172;45.550;12.072;2023-05-29T06:49:43;4.97;;;4.22;;
53287;SDS011;39172;45.550;12.072;2023-05-29T06:55:44;4.15;;;3.60;;
53287;SDS011;39172;45.550;12.072;2023-05-29T07:01:45;5.10;;;4.35;;
53287;SDS011;39172;45.550;12.072;2023-05-29T07:07:46;4.75;;;3.78;;
53287;SDS011;39172;45.550;12.072;2023-05-29T07:13:48;4.72;;;4.13;;
53287;SDS011;39172;45.550;12.072;2023-05-29T07:19:49;7.18;;;4.65;;
53287;SDS011;39172;45.550;12.072;2023-05-29T07:25:50;5.20;;;4.10;;
53287;SDS011;39172;45.550;12.072;2023-05-29T07:31:51;5.07;;;4.25;;
53287;SDS011;39172;45.550;12.072;2023-05-29T07:37:54;5.75;;;4.35;;
53287;SDS011;39172;45.550;12.072;2023-05-29T07:43:57;5.45;;;4.20;;
53287;SDS011;39172;45.550;12.072;2023-05-29T07:49:58;5.03;;;4.05;;
53287;SDS011;39172;45.550;12.072;2023-05-29T07:56:01;5.35;;;4.40;;
53287;SDS011;39172;45.550;12.072;2023-05-29T08:02:03;5.85;;;4.60;;
53287;SDS011;39172;45.550;12.072;2023-05-29T08:08:19;6.25;;;4.30;;
53287;SDS011;39172;45.550;12.072;2023-05-29T08:14:20;4.78;;;3.90;;
53287;SDS011;39172;45.550;12.072;2023-05-29T08:20:22;5.13;;;4.00;;
53287;SDS011;39172;45.550;12.072;2023-05-29T08:26:23;5.40;;;4.20;;
53287;SDS011;39172;45.550;12.072;2023-05-29T08:32:24;6.40;;;4.60;;
53287;SDS011;39172;45.550;12.072;2023-05-29T08:38:25;5.45;;;4.18;;
53287;SDS011;39172;45.550;12.072;2023-05-29T08:44:29;4.40;;;3.95;;
53287;SDS011;39172;45.550;12.072;2023-05-29T08:50:30;6.28;;;4.35;;
53287;SDS011;39172;45.550;12.072;2023-05-29T08:56:31;6.07;;;4.55;;
53287;SDS011;39172;45.550;12.072;2023-05-29T09:02:32;6.38;;;4.88;;
53287;SDS011;39172;45.550;12.072;2023-05-29T09:08:34;5.18;;;4.60;;
53287;SDS011;39172;45.550;12.072;2023-05-29T09:14:35;6.18;;;4.20;;
53287;SDS011;39172;45.550;12.072;2023-05-29T09:20:36;5.00;;;3.88;;
53287;SDS011;39172;45.550;12.072;2023-05-29T09:26:37;5.00;;;4.30;;
53287;SDS011;39172;45.550;12.072;2023-05-29T09:32:39;5.85;;;4.15;;
53287;SDS011;39172;45.550;12.072;2023-05-29T09:38:40;4.75;;;3.85;;
53287;SDS011;39172;45.550;12.072;2023-05-29T09:44:49;7.03;;;4.93;;
53287;SDS011;39172;45.550;12.072;2023-05-29T09:50:53;5.20;;;4.00;;
53287;SDS011;39172;45.550;12.072;2023-05-29T09:56:58;4.60;;;3.90;;
53287;SDS011;39172;45.550;12.072;2023-05-29T10:03:01;4.50;;;4.10;;
53287;SDS011;39172;45.550;12.072;2023-05-29T10:09:02;4.70;;;4.20;;
53287;SDS011;39172;45.550;12.072;2023-05-29T10:15:05;4.47;;;4.00;;
53287;SDS011;39172;45.550;12.072;2023-05-29T10:21:07;5.63;;;4.40;;
53287;SDS011;39172;45.550;12.072;2023-05-29T10:27:08;4.47;;;4.07;;
53287;SDS011;39172;45.550;12.072;2023-05-29T10:39:10;5.50;;;4.35;;
53287;SDS011;39172;45.550;12.072;2023-05-29T10:51:28;4.80;;;4.18;;
53287;SDS011;39172;45.550;12.072;2023-05-29T10:57:31;6.63;;;3.90;;
53287;SDS011;39172;45.550;12.072;2023-05-29T11:03:36;5.40;;;4.07;;
53287;SDS011;39172;45.550;12.072;2023-05-29T11:09:37;4.82;;;4.00;;
53287;SDS011;39172;45.550;12.072;2023-05-29T11:15:40;5.10;;;3.85;;
53287;SDS011;39172;45.550;12.072;2023-05-29T11:27:43;4.88;;;4.00;;
53287;SDS011;39172;45.550;12.072;2023-05-29T11:33:47;5.55;;;3.67;;
53287;SDS011;39172;45.550;12.072;2023-05-29T11:39:48;5.88;;;4.10;;
53287;SDS011;39172;45.550;12.072;2023-05-29T11:45:49;4.90;;;3.80;;
53287;SDS011;39172;45.550;12.072;2023-05-29T11:51:50;5.35;;;3.90;;
53287;SDS011;39172;45.550;12.072;2023-05-29T11:57:51;4.00;;;3.35;;
53287;SDS011;39172;45.550;12.072;2023-05-29T12:03:56;4.88;;;4.03;;
53287;SDS011;39172;45.550;12.072;2023-05-29T12:09:57;3.90;;;3.40;;
53287;SDS011;39172;45.550;12.072;2023-05-29T12:16:02;3.42;;;3.08;;
53287;SDS011;39172;45.550;12.072;2023-05-29T12:22:03;3.72;;;3.13;;
53287;SDS011;39172;45.550;12.072;2023-05-29T12:28:04;4.60;;;3.75;;
53287;SDS011;39172;45.550;12.072;2023-05-29T12:40:20;3.90;;;3.53;;
53287;SDS011;39172;45.550;12.072;2023-05-29T12:46:21;3.97;;;3.58;;
53287;SDS011;39172;45.550;12.072;2023-05-29T12:52:23;4.65;;;3.40;;
53287;SDS011;39172;45.550;12.072;2023-05-29T12:58:24;4.50;;;3.70;;
53287;SDS011;39172;45.550;12.072;2023-05-29T13:04:25;4.75;;;3.45;;
53287;SDS011;39172;45.550;12.072;2023-05-29T13:10:26;3.88;;;3.47;;
53287;SDS011;39172;45.550;12.072;2023-05-29T13:16:27;5.55;;;3.60;;
53287;SDS011;39172;45.550;12.072;2023-05-29T13:22:28;4.35;;;3.63;;
53287;SDS011;39172;45.550;12.072;2023-05-29T13:28:32;5.65;;;4.25;;
53287;SDS011;39172;45.550;12.072;2023-05-29T13:34:33;4.63;;;3.85;;
53287;SDS011;39172;45.550;12.072;2023-05-29T13:40:34;4.22;;;3.83;;
53287;SDS011;39172;45.550;12.072;2023-05-29T13:46:37;4.55;;;4.10;;
53287;SDS011;39172;45.550;12.072;2023-05-29T13:52:38;4.35;;;3.65;;
53287;SDS011;39172;45.550;12.072;2023-05-29T13:58:39;5.80;;;4.60;;
53287;SDS011;39172;45.550;12.072;2023-05-29T14:04:39;4.95;;;3.88;;
53287;SDS011;39172;45.550;12.072;2023-05-29T14:10:43;4.15;;;3.50;;
53287;SDS011;39172;45.550;12.072;2023-05-29T14:16:43;3.92;;;3.30;;
53287;SDS011;39172;45.550;12.072;2023-05-29T14:22:45;4.28;;;3.88;;
53287;SDS011;39172;45.550;12.072;2023-05-29T14:28:45;4.03;;;3.63;;
53287;SDS011;39172;45.550;12.072;2023-05-29T14:34:46;3.63;;;3.33;;
53287;SDS011;39172;45.550;12.072;2023-05-29T14:40:47;3.75;;;3.35;;
53287;SDS011;39172;45.550;12.072;2023-05-29T14:46:48;4.43;;;3.70;;
53287;SDS011;39172;45.550;12.072;2023-05-29T14:52:49;4.85;;;3.78;;
53287;SDS011;39172;45.550;12.072;2023-05-29T14:58:50;4.30;;;3.72;;
53287;SDS011;39172;45.550;12.072;2023-05-29T15:04:51;3.92;;;3.53;;
53287;SDS011;39172;45.550;12.072;2023-05-29T15:10:52;3.88;;;3.30;;
53287;SDS011;39172;45.550;12.072;2023-05-29T15:16:53;3.80;;;3.45;;
53287;SDS011;39172;45.550;12.072;2023-05-29T15:22:55;4.75;;;4.00;;
53287;SDS011;39172;45.550;12.072;2023-05-29T15:28:56;4.93;;;4.00;;
53287;SDS011;39172;45.550;12.072;2023-05-29T15:34:57;4.55;;;3.60;;
53287;SDS011;39172;45.550;12.072;2023-05-29T15:40:58;5.03;;;3.45;;
53287;SDS011;39172;45.550;12.072;2023-05-29T15:46:59;4.00;;;3.38;;
53287;SDS011;39172;45.550;12.072;2023-05-29T15:53:00;5.03;;;3.83;;
53287;SDS011;39172;45.550;12.072;2023-05-29T15:59:00;4.65;;;3.58;;
53287;SDS011;39172;45.550;12.072;2023-05-29T16:05:03;4.90;;;3.90;;
53287;SDS011;39172;45.550;12.072;2023-05-29T16:11:04;4.65;;;3.65;;
53287;SDS011;39172;45.550;12.072;2023-05-29T16:17:05;6.43;;;4.25;;
53287;SDS011;39172;45.550;12.072;2023-05-29T16:23:06;6.38;;;4.10;;
53287;SDS011;39172;45.550;12.072;2023-05-29T16:29:07;5.53;;;4.18;;
53287;SDS011;39172;45.550;12.072;2023-05-29T16:35:08;4.57;;;3.95;;
53287;SDS011;39172;45.550;12.072;2023-05-29T16:41:09;5.80;;;4.20;;
53287;SDS011;39172;45.550;12.072;2023-05-29T16:47:09;4.00;;;3.60;;
53287;SDS011;39172;45.550;12.072;2023-05-29T16:53:10;5.72;;;4.57;;
53287;SDS011;39172;45.550;12.072;2023-05-29T16:59:11;5.45;;;3.80;;
53287;SDS011;39172;45.550;12.072;2023-05-29T17:05:12;3.70;;;3.30;;
53287;SDS011;39172;45.550;12.072;2023-05-29T17:11:13;4.75;;;3.90;;
53287;SDS011;39172;45.550;12.072;2023-05-29T17:17:14;4.88;;;3.60;;
53287;SDS011;39172;45.550;12.072;2023-05-29T17:23:15;4.50;;;3.97;;
53287;SDS011;39172;45.550;12.072;2023-05-29T17:29:16;4.22;;;3.83;;
53287;SDS011;39172;45.550;12.072;2023-05-29T17:35:17;4.78;;;4.07;;
53287;SDS011;39172;45.550;12.072;2023-05-29T17:41:18;4.72;;;3.95;;
53287;SDS011;39172;45.550;12.072;2023-05-29T17:47:19;5.78;;;3.63;;
53287;SDS011;39172;45.550;12.072;2023-05-29T17:53:20;3.90;;;3.50;;
53287;SDS011;39172;45.550;12.072;2023-05-29T17:59:21;3.50;;;3.05;;
53287;SDS011;39172;45.550;12.072;2023-05-29T18:05:22;3.88;;;2.90;;
53287;SDS011;39172;45.550;12.072;2023-05-29T18:11:23;3.75;;;3.00;;
53287;SDS011;39172;45.550;12.072;2023-05-29T18:17:24;4.32;;;3.13;;
53287;SDS011;39172;45.550;12.072;2023-05-29T18:23:25;3.72;;;3.22;;
53287;SDS011;39172;45.550;12.072;2023-05-29T18:29:25;3.70;;;2.72;;
53287;SDS011;39172;45.550;12.072;2023-05-29T18:35:26;3.55;;;2.80;;
53287;SDS011;39172;45.550;12.072;2023-05-29T18:41:27;2.60;;;2.40;;
53287;SDS011;39172;45.550;12.072;2023-05-29T18:47:28;3.63;;;2.80;;
53287;SDS011;39172;45.550;12.072;2023-05-29T18:53:29;4.07;;;3.10;;
53287;SDS011;39172;45.550;12.072;2023-05-29T18:59:30;3.83;;;3.20;;
53287;SDS011;39172;45.550;12.072;2023-05-29T19:05:31;3.47;;;3.00;;
53287;SDS011;39172;45.550;12.072;2023-05-29T19:11:31;3.30;;;2.88;;
53287;SDS011;39172;45.550;12.072;2023-05-29T19:17:32;5.55;;;3.20;;
53287;SDS011;39172;45.550;12.072;2023-05-29T19:23:33;3.35;;;2.97;;
53287;SDS011;39172;45.550;12.072;2023-05-29T19:29:34;3.60;;;3.00;;
53287;SDS011;39172;45.550;12.072;2023-05-29T19:35:39;4.38;;;3.40;;
53287;SDS011;39172;45.550;12.072;2023-05-29T19:41:40;5.40;;;3.78;;
53287;SDS011;39172;45.550;12.072;2023-05-29T19:47:43;4.35;;;3.65;;
53287;SDS011;39172;45.550;12.072;2023-05-29T19:53:44;3.97;;;3.53;;
53287;SDS011;39172;45.550;12.072;2023-05-29T19:59:45;4.18;;;3.25;;
53287;SDS011;39172;45.550;12.072;2023-05-29T20:05:49;3.63;;;3.17;;
53287;SDS011;39172;45.550;12.072;2023-05-29T20:11:50;3.83;;;3.20;;
53287;SDS011;39172;45.550;12.072;2023-05-29T20:17:51;4.03;;;3.22;;
53287;SDS011;39172;45.550;12.072;2023-05-29T20:23:52;3.33;;;3.03;;
53287;SDS011;39172;45.550;12.072;2023-05-29T20:29:53;3.40;;;3.10;;
53287;SDS011;39172;45.550;12.072;2023-05-29T20:35:54;4.30;;;3.42;;
53287;SDS011;39172;45.550;12.072;2023-05-29T20:41:58;3.85;;;3.17;;
53287;SDS011;39172;45.550;12.072;2023-05-29T20:48:01;3.08;;;2.83;;
53287;SDS011;39172;45.550;12.072;2023-05-29T20:54:02;2.70;;;2.22;;
53287;SDS011;39172;45.550;12.072;2023-05-29T21:00:04;3.67;;;2.60;;
53287;SDS011;39172;45.550;12.072;2023-05-29T21:06:07;2.85;;;2.60;;
53287;SDS011;39172;45.550;12.072;2023-05-29T21:12:09;2.92;;;2.63;;
53287;SDS011;39172;45.550;12.072;2023-05-29T21:18:11;2.80;;;2.50;;
53287;SDS011;39172;45.550;12.072;2023-05-29T21:24:13;3.13;;;2.80;;
53287;SDS011;39172;45.550;12.072;2023-05-29T21:30:13;3.20;;;2.70;;
53287;SDS011;39172;45.550;12.072;2023-05-29T21:36:14;2.97;;;2.70;;
53287;SDS011;39172;45.550;12.072;2023-05-29T21:42:16;4.10;;;2.95;;
53287;SDS011;39172;45.550;12.072;2023-05-29T21:48:17;3.22;;;2.72;;
53287;SDS011;39172;45.550;12.072;2023-05-29T21:54:18;3.38;;;2.58;;
53287;SDS011;39172;45.550;12.072;2023-05-29T22:00:19;3.20;;;2.70;;
53287;SDS011;39172;45.550;12.072;2023-05-29T22:06:25;3.50;;;2.72;;
53287;SDS011;39172;45.550;12.072;2023-05-29T22:12:26;4.32;;;3.00;;
53287;SDS011;39172;45.550;12.072;2023-05-29T22:18:27;3.30;;;3.00;;
53287;SDS011;39172;45.550;12.072;2023-05-29T22:24:28;3.50;;;3.00;;
53287;SDS011;39172;45.550;12.072;2023-05-29T22:30:29;4.60;;;3.30;;
53287;SDS011;39172;45.550;12.072;2023-05-29T22:36:30;3.55;;;3.25;;
53287;SDS011;39172;45.550;12.072;2023-05-29T22:42:32;3.78;;;3.25;;
53287;SDS011;39172;45.550;12.072;2023-05-29T22:48:33;4.13;;;3.72;;
53287;SDS011;39172;45.550;12.072;2023-05-29T22:54:34;4.40;;;3.72;;
53287;SDS011;39172;45.550;12.072;2023-05-29T23:00:35;6.00;;;4.50;;
53287;SDS011;39172;45.550;12.072;2023-05-29T23:06:36;6.07;;;4.40;;
53287;SDS011;39172;45.550;12.072;2023-05-29T23:12:41;6.38;;;4.43;;
53287;SDS011;39172;45.550;12.072;2023-05-29T23:18:42;5.22;;;4.60;;
53287;SDS011;39172;45.550;12.072;2023-05-29T23:24:43;6.35;;;4.57;;
53287;SDS011;39172;45.550;12.072;2023-05-29T23:30:44;6.55;;;4.72;;
53287;SDS011;39172;45.550;12.072;2023-05-29T23:36:45;5.75;;;4.53;;
53287;SDS011;39172;45.550;12.072;2023-05-29T23:42:46;5.20;;;4.18;;
53287;SDS011;39172;45.550;12.072;2023-05-29T23:48:47;4.60;;;4.00;;
53287;SDS011;39172;45.550;12.072;2023-05-29T23:54:48;4.90;;;4.20;;
